Time;durP1;ratioP1;P1;durP2;ratioP2;P2;SDS_P1;SDS_P2;PMS_P1;PMS_P2;Temp;Humidity;BMP_temperature;BMP_pressure;BME280_temperature;BME280_humidity;BME280_pressure;Samples;Min_cycle;Max_cycle;Signal;HPM_P1;HPM_P2
2021/01/15 00:01:39;;;;;;;2.13;1.93;;;;;;;-0.82;100.00;95675.84;5092985;28;20253;-89
2021/01/15 00:04:06;;;;;;;2.50;2.20;;;;;;;-0.96;100.00;95675.00;5092949;28;20260;-89
2021/01/15 00:06:36;;;;;;;3.53;2.37;;;;;;;-0.89;100.00;95688.31;5092891;28;20213;-89
2021/01/15 00:09:04;;;;;;;2.20;2.00;;;;;;;-0.96;100.00;95695.66;5092943;28;20203;-89
2021/01/15 00:11:33;;;;;;;1.80;1.70;;;;;;;-0.93;100.00;95696.38;5092807;28;20200;-88
2021/01/15 00:14:01;;;;;;;2.40;2.00;;;;;;;-0.90;100.00;95703.88;5092767;28;20261;-89
2021/01/15 00:16:29;;;;;;;2.10;2.00;;;;;;;-0.98;100.00;95712.97;5092707;28;20234;-88
2021/01/15 00:18:58;;;;;;;3.40;2.37;;;;;;;-0.92;100.00;95716.09;5092929;28;20232;-88
2021/01/15 00:21:27;;;;;;;3.30;2.30;;;;;;;-0.98;100.00;95725.03;5093237;28;20230;-89
2021/01/15 00:23:55;;;;;;;2.50;2.20;;;;;;;-0.97;100.00;95729.25;5093010;28;20291;-89
2021/01/15 00:26:24;;;;;;;3.80;1.50;;;;;;;-0.94;100.00;95721.31;5092646;28;20201;-89
2021/01/15 00:28:53;;;;;;;1.73;1.63;;;;;;;-0.97;100.00;95724.97;5092933;28;20681;-88
2021/01/15 00:31:20;;;;;;;1.83;1.73;;;;;;;-1.17;100.00;95724.63;5092620;28;20283;-88
2021/01/15 00:33:47;;;;;;;2.20;2.10;;;;;;;-1.13;100.00;95720.91;5092535;28;20197;-88
2021/01/15 00:36:15;;;;;;;2.30;1.70;;;;;;;-1.04;100.00;95730.59;5092517;28;20672;-88
2021/01/15 00:38:42;;;;;;;2.20;1.90;;;;;;;-1.13;100.00;95726.88;5092309;28;20283;-88
2021/01/15 00:41:09;;;;;;;2.10;2.00;;;;;;;-1.10;100.00;95738.75;5092575;28;20220;-87
2021/01/15 00:43:37;;;;;;;2.33;2.13;;;;;;;-1.23;100.00;95736.16;5092608;28;20580;-88
2021/01/15 00:46:07;;;;;;;2.60;2.40;;;;;;;-1.20;100.00;95736.78;5095484;28;20199;-87
2021/01/15 00:48:34;;;;;;;2.33;2.13;;;;;;;-1.07;100.00;95735.97;5096227;28;20726;-88
2021/01/15 00:51:08;;;;;;;2.30;2.00;;;;;;;-1.16;100.00;95739.16;5096194;28;20195;-88
2021/01/15 00:53:39;;;;;;;2.67;2.47;;;;;;;-1.30;100.00;95748.59;5096764;28;20191;-88
2021/01/15 00:56:06;;;;;;;2.27;2.07;;;;;;;-1.24;100.00;95745.63;5056110;28;20297;-88
2021/01/15 00:58:33;;;;;;;2.67;2.00;;;;;;;-1.24;100.00;95753.38;5055941;28;20202;-88
2021/01/15 01:00:59;;;;;;;2.40;2.20;;;;;;;-1.23;100.00;95761.94;5055776;28;20315;-87
2021/01/15 01:03:26;;;;;;;2.10;1.97;;;;;;;-1.22;100.00;95772.13;5055677;28;20252;-88
2021/01/15 01:05:53;;;;;;;3.47;2.60;;;;;;;-1.32;100.00;95773.66;5056123;28;20247;-87
2021/01/15 01:08:20;;;;;;;3.30;2.97;;;;;;;-1.20;100.00;95778.03;5055722;28;20205;-87
2021/01/15 01:10:48;;;;;;;2.17;1.97;;;;;;;-1.16;100.00;95773.50;5055640;28;20291;-88
2021/01/15 01:13:15;;;;;;;2.13;1.93;;;;;;;-1.32;100.00;95773.66;5055587;28;20198;-87
2021/01/15 01:15:42;;;;;;;2.03;1.83;;;;;;;-1.24;100.00;95771.41;5055630;28;20284;-88
2021/01/15 01:18:11;;;;;;;2.00;1.90;;;;;;;-1.20;100.00;95772.06;5055508;28;20236;-87
2021/01/15 01:20:38;;;;;;;1.90;1.70;;;;;;;-1.26;100.00;95772.44;5055331;28;20225;-87
2021/01/15 01:23:05;;;;;;;1.80;1.70;;;;;;;-1.23;100.00;95775.66;5055260;28;20667;-87
2021/01/15 01:25:32;;;;;;;2.27;1.83;;;;;;;-1.33;100.00;95764.28;5055784;28;20570;-88
2021/01/15 01:27:59;;;;;;;2.00;1.90;;;;;;;-1.14;100.00;95779.41;5055265;28;20290;-87
2021/01/15 01:30:26;;;;;;;1.80;1.70;;;;;;;-1.25;100.00;95776.66;5055768;28;20759;-87
2021/01/15 01:32:53;;;;;;;2.87;1.97;;;;;;;-1.04;100.00;95780.47;5055354;28;20197;-88
2021/01/15 01:35:20;;;;;;;3.37;2.30;;;;;;;-1.06;100.00;95776.31;5055230;28;20252;-87
2021/01/15 01:37:47;;;;;;;1.97;1.87;;;;;;;-1.18;100.00;95762.44;5054957;28;20662;-87
2021/01/15 01:40:15;;;;;;;2.33;2.23;;;;;;;-1.18;100.00;95761.63;5055237;28;20652;-87
2021/01/15 01:42:42;;;;;;;2.00;1.90;;;;;;;-1.05;100.00;95752.16;5054932;28;20328;-87
2021/01/15 01:45:14;;;;;;;1.63;1.50;;;;;;;-1.20;100.00;95736.78;5055318;28;20229;-87
2021/01/15 01:47:41;;;;;;;2.27;1.83;;;;;;;-1.26;100.00;95732.00;5054981;28;20252;-88
2021/01/15 01:50:10;;;;;;;1.83;1.73;;;;;;;-1.13;100.00;95721.72;5055139;28;20193;-88
2021/01/15 01:52:37;;;;;;;2.17;1.97;;;;;;;-1.33;100.00;95722.19;5054988;28;20193;-86
2021/01/15 01:55:05;;;;;;;1.87;1.77;;;;;;;-1.26;100.00;95720.88;5078068;28;20275;-87
2021/01/15 01:57:33;;;;;;;2.07;1.90;;;;;;;-1.31;100.00;95712.63;5093881;28;20192;-87
2021/01/15 02:00:00;;;;;;;2.00;1.90;;;;;;;-1.26;100.00;95701.06;5095053;28;20677;-88
2021/01/15 02:02:28;;;;;;;2.33;2.10;;;;;;;-1.28;100.00;95709.81;5094841;28;20197;-86
2021/01/15 02:04:55;;;;;;;2.73;1.77;;;;;;;-1.35;100.00;95704.25;5094681;28;20200;-89
2021/01/15 02:07:22;;;;;;;2.30;2.10;;;;;;;-1.27;100.00;95698.59;5094581;28;20283;-88
2021/01/15 02:10:01;;;;;;;2.07;1.70;;;;;;;-1.29;100.00;95706.41;5094532;28;20279;-86
2021/01/15 02:12:40;;;;;;;1.70;1.57;;;;;;;-1.33;100.00;95706.72;5094442;28;20180;-87
2021/01/15 02:15:13;;;;;;;1.63;1.53;;;;;;;-1.28;100.00;95702.94;5094731;28;20674;-87
2021/01/15 02:18:09;;;;;;;2.00;1.80;;;;;;;-1.24;100.00;95688.91;5094351;28;20195;-86
2021/01/15 02:21:18;;;;;;;3.13;1.97;;;;;;;-1.28;100.00;95696.94;5094434;28;20237;-87
2021/01/15 02:23:46;;;;;;;1.97;1.87;;;;;;;-1.31;100.00;95685.09;5089289;28;20287;-87
2021/01/15 02:26:49;;;;;;;1.93;1.83;;;;;;;-1.34;100.00;95685.28;5093989;28;20226;-86
2021/01/15 02:29:18;;;;;;;2.50;1.93;;;;;;;-1.26;100.00;95690.75;5094539;28;20188;-87
2021/01/15 02:32:26;;;;;;;2.30;1.83;;;;;;;-1.32;100.00;95682.59;5093715;28;20931;-87
2021/01/15 02:35:26;;;;;;;3.20;1.67;;;;;;;-1.27;100.00;95699.44;5094241;28;20188;-86
2021/01/15 02:38:24;;;;;;;1.90;1.80;;;;;;;-1.35;100.00;95691.38;5094340;28;20208;-86
2021/01/15 02:41:11;;;;;;;3.97;2.47;;;;;;;-1.33;100.00;95699.00;5090252;28;20311;-86
2021/01/15 02:43:41;;;;;;;3.83;3.07;;;;;;;-1.22;100.00;95707.66;5094064;28;20208;-86
2021/01/15 02:46:13;;;;;;;3.10;2.47;;;;;;;-1.18;100.00;95721.19;5093868;28;20233;-85
2021/01/15 02:48:55;;;;;;;6.77;3.33;;;;;;;-1.17;100.00;95730.59;5094116;28;20196;-87
2021/01/15 02:51:22;;;;;;;3.90;2.77;;;;;;;-1.20;100.00;95736.78;5093583;28;20303;-86
2021/01/15 02:53:50;;;;;;;2.07;1.60;;;;;;;-1.28;100.00;95749.34;5093267;28;20228;-86
2021/01/15 02:56:17;;;;;;;2.70;2.47;;;;;;;-1.26;100.00;95759.53;5093311;28;20180;-85
2021/01/15 02:58:44;;;;;;;3.47;2.60;;;;;;;-1.22;100.00;95755.84;5093393;28;20238;-87
2021/01/15 03:01:11;;;;;;;4.83;2.97;;;;;;;-1.28;100.00;95774.28;5093156;28;20188;-86
2021/01/15 03:03:49;;;;;;;2.77;2.30;;;;;;;-1.18;100.00;95765.03;5093559;28;20200;-86
2021/01/15 03:06:33;;;;;;;3.80;2.60;;;;;;;-1.21;100.00;95767.81;5093586;28;20263;-86
2021/01/15 03:09:02;;;;;;;2.50;2.20;;;;;;;-1.25;100.00;95762.03;5093210;28;20636;-86
2021/01/15 03:11:32;;;;;;;2.33;2.13;;;;;;;-1.25;100.00;95764.63;5093068;28;20196;-86
2021/01/15 03:14:02;;;;;;;2.73;2.20;;;;;;;-1.21;100.00;95766.06;5093161;28;20200;-86
2021/01/15 03:16:30;;;;;;;2.40;2.20;;;;;;;-1.31;100.00;95765.00;5093649;28;20732;-86
2021/01/15 03:19:00;;;;;;;2.23;2.13;;;;;;;-1.25;100.00;95753.47;5093032;28;20192;-87
2021/01/15 03:21:28;;;;;;;2.17;1.97;;;;;;;-1.23;100.00;95756.78;5093026;28;20224;-86
2021/01/15 03:23:56;;;;;;;2.20;2.00;;;;;;;-1.23;100.00;95761.94;5092909;28;20196;-86
2021/01/15 03:26:28;;;;;;;1.97;1.87;;;;;;;-1.32;100.00;95763.34;5093098;28;20196;-86
2021/01/15 03:28:55;;;;;;;2.20;2.03;;;;;;;-1.28;100.00;95775.13;5092706;28;20261;-86
2021/01/15 03:31:22;;;;;;;2.40;2.20;;;;;;;-1.24;100.00;95779.16;5092612;28;20226;-85
2021/01/15 03:33:48;;;;;;;2.30;2.10;;;;;;;-1.26;100.00;95781.00;5092806;28;20197;-86
2021/01/15 03:36:16;;;;;;;1.80;1.70;;;;;;;-1.26;100.00;95780.16;5092677;28;20203;-86
2021/01/15 03:38:43;;;;;;;3.17;2.57;;;;;;;-1.19;100.00;95796.91;5092685;28;20196;-86
2021/01/15 03:41:10;;;;;;;2.20;2.00;;;;;;;-1.18;100.00;95790.00;5092825;28;20196;-86
2021/01/15 03:43:38;;;;;;;4.23;1.83;;;;;;;-1.15;100.00;95790.63;5092549;28;20200;-86
2021/01/15 03:46:05;;;;;;;3.30;1.67;;;;;;;-1.32;100.00;95798.59;5092803;28;20199;-86
2021/01/15 03:48:32;;;;;;;2.10;2.00;;;;;;;-1.23;100.00;95792.88;5092697;28;20200;-86
2021/01/15 03:50:58;;;;;;;1.80;1.70;;;;;;;-1.28;100.00;95784.59;5092369;28;20220;-86
2021/01/15 03:53:25;;;;;;;2.50;2.20;;;;;;;-1.20;100.00;95788.34;5092564;28;20192;-87
2021/01/15 03:55:52;;;;;;;3.03;1.97;;;;;;;-1.31;100.00;95782.22;5091103;28;20727;-86
2021/01/15 03:58:19;;;;;;;2.00;1.80;;;;;;;-1.28;100.00;95777.72;5092259;28;20253;-85
2021/01/15 04:00:47;;;;;;;2.43;2.23;;;;;;;-1.30;100.00;95768.41;5092687;28;20192;-86
2021/01/15 04:03:13;;;;;;;2.87;1.87;;;;;;;-1.32;100.00;95767.66;5092069;28;20203;-85
2021/01/15 04:05:42;;;;;;;2.77;2.27;;;;;;;-1.36;100.00;95772.19;5092292;28;20208;-86
2021/01/15 04:08:09;;;;;;;2.37;2.17;;;;;;;-1.39;100.00;95774.97;5092224;28;20235;-85
2021/01/15 04:10:36;;;;;;;2.20;2.00;;;;;;;-1.39;100.00;95763.84;5092276;28;20350;-86
2021/01/15 04:13:03;;;;;;;1.83;1.73;;;;;;;-1.44;100.00;95764.13;5092077;28;20279;-86
2021/01/15 04:15:30;;;;;;;2.37;2.17;;;;;;;-1.44;100.00;95761.56;5092015;28;20214;-86
2021/01/15 04:18:01;;;;;;;2.37;2.17;;;;;;;-1.45;100.00;95775.38;5092399;28;20200;-86
2021/01/15 04:20:28;;;;;;;2.37;2.17;;;;;;;-1.38;100.00;95781.78;5099173;28;20252;-84
2021/01/15 04:22:55;;;;;;;2.10;1.90;;;;;;;-1.35;100.00;95793.63;5110473;28;20679;-86
2021/01/15 04:25:22;;;;;;;2.43;2.23;;;;;;;-1.36;100.00;95804.88;5111135;28;20195;-87
2021/01/15 04:28:07;;;;;;;;;;;;;;;;;;;;;
2021/01/15 04:30:35;;;;;;;1.90;1.80;;;;;;;-1.51;100.00;95837.63;5113054;28;20223;-87
2021/01/15 04:33:03;;;;;;;2.30;2.10;;;;;;;-1.62;100.00;95842.63;5112263;28;20556;-88
2021/01/15 04:35:30;;;;;;;2.10;2.00;;;;;;;-1.56;100.00;95845.63;5111649;28;20686;-87
2021/01/15 04:37:57;;;;;;;2.40;2.20;;;;;;;-1.62;100.00;95852.91;5111778;28;20199;-87
2021/01/15 04:40:23;;;;;;;1.83;1.70;;;;;;;-1.60;100.00;95853.63;5111699;28;20286;-86
2021/01/15 04:42:55;;;;;;;1.77;1.63;;;;;;;-1.58;100.00;95862.94;5112409;28;20250;-87
2021/01/15 04:45:22;;;;;;;2.40;2.20;;;;;;;-1.46;100.00;95867.31;5111676;28;20180;-85
2021/01/15 04:47:48;;;;;;;2.60;2.40;;;;;;;-1.68;100.00;95870.41;5110668;28;20241;-85
2021/01/15 04:50:17;;;;;;;2.17;2.00;;;;;;;-1.54;100.00;95876.47;5110272;28;20219;-85
2021/01/15 04:52:49;;;;;;;3.13;2.67;;;;;;;-1.77;100.00;95888.16;5110855;28;20199;-84
2021/01/15 04:55:20;;;;;;;3.07;1.87;;;;;;;-1.63;100.00;95877.00;5110555;28;20326;-84
2021/01/15 04:57:50;;;;;;;2.60;2.40;;;;;;;-1.57;100.00;95880.03;5111210;28;20202;-84
2021/01/15 05:00:19;;;;;;;2.63;1.97;;;;;;;-1.72;100.00;95878.41;5110950;28;20705;-84
2021/01/15 05:02:47;;;;;;;2.83;2.20;;;;;;;-1.50;100.00;95877.91;5111034;28;20196;-89
2021/01/15 05:05:25;;;;;;;3.60;3.00;;;;;;;-1.63;100.00;95870.09;5112001;28;20238;-87
2021/01/15 05:08:11;;;;;;;3.00;2.70;;;;;;;-1.70;100.00;95877.41;5112220;28;20267;-85
2021/01/15 05:10:39;;;;;;;5.03;2.67;;;;;;;-1.54;100.00;95877.28;5111913;28;20239;-84
2021/01/15 05:13:09;;;;;;;5.73;4.37;;;;;;;-1.53;100.00;95883.25;5112017;28;20204;-85
2021/01/15 05:15:37;;;;;;;5.00;4.33;;;;;;;-1.59;100.00;95881.06;5112261;28;20377;-87
2021/01/15 05:18:05;;;;;;;9.27;7.30;;;;;;;-1.62;100.00;95892.41;5112417;28;20627;-87
2021/01/15 05:20:34;;;;;;;6.07;5.00;;;;;;;-1.60;100.00;95898.25;5112081;28;20287;-87
2021/01/15 05:23:02;;;;;;;4.23;3.73;;;;;;;-1.82;100.00;95910.81;5111995;28;20187;-87
2021/01/15 05:25:29;;;;;;;4.03;3.63;;;;;;;-1.76;100.00;95924.16;5112101;28;20213;-87
2021/01/15 05:27:56;;;;;;;4.77;3.50;;;;;;;-1.77;100.00;95924.22;5111996;28;20204;-86
2021/01/15 05:30:25;;;;;;;4.23;3.83;;;;;;;-1.80;100.00;95927.84;5112139;28;20219;-87
2021/01/15 05:32:54;;;;;;;7.17;5.30;;;;;;;-1.88;100.00;95934.34;5115135;28;20352;-86
2021/01/15 05:35:21;;;;;;;10.80;6.07;;;;;;;-1.85;100.00;95934.16;5115650;28;20205;-86
2021/01/15 05:37:57;;;;;;;5.13;4.63;;;;;;;-1.74;100.00;95935.16;5116011;28;20253;-87
2021/01/15 05:40:38;;;;;;;3.77;3.50;;;;;;;-1.69;100.00;95935.75;5115758;28;20563;-87
2021/01/15 05:43:06;;;;;;;4.53;2.63;;;;;;;-1.75;100.00;95927.56;5115483;28;20235;-86
2021/01/15 05:45:33;;;;;;;4.77;4.03;;;;;;;-1.68;100.00;95926.25;5115740;28;20673;-86
2021/01/15 05:48:00;;;;;;;4.33;3.77;;;;;;;-1.72;100.00;95940.25;5115261;28;20231;-86
2021/01/15 05:50:40;;;;;;;4.80;4.17;;;;;;;-1.73;100.00;95941.19;5115679;28;20246;-86
2021/01/15 05:53:08;;;;;;;3.43;3.13;;;;;;;-1.81;100.00;95946.78;5115506;28;20248;-86
2021/01/15 05:55:35;;;;;;;4.30;3.67;;;;;;;-1.77;100.00;95943.09;5115099;28;20237;-86
2021/01/15 05:58:11;;;;;;;5.20;3.60;;;;;;;-1.64;100.00;95952.66;5115331;28;20575;-86
2021/01/15 06:00:38;;;;;;;6.10;4.10;;;;;;;-1.74;100.00;95960.94;5115076;28;20199;-86
2021/01/15 06:03:09;;;;;;;7.33;4.33;;;;;;;-1.75;100.00;95954.13;5114905;28;20195;-87
2021/01/15 06:05:37;;;;;;;4.80;3.37;;;;;;;-1.74;100.00;95957.53;5114872;28;20231;-87
2021/01/15 06:08:04;;;;;;;6.33;3.43;;;;;;;-1.53;100.00;95950.28;5115079;28;20218;-86
2021/01/15 06:10:45;;;;;;;3.60;3.27;;;;;;;-1.57;100.00;95961.69;5115155;28;20310;-86
2021/01/15 06:13:12;;;;;;;3.50;3.17;;;;;;;-1.52;100.00;95962.25;5115065;28;20192;-86
2021/01/15 06:15:46;;;;;;;3.87;3.20;;;;;;;-1.67;100.00;95964.81;5114832;28;20231;-86
2021/01/15 06:18:20;;;;;;;3.97;3.30;;;;;;;-1.60;100.00;95974.75;5115168;28;20253;-86
2021/01/15 06:20:47;;;;;;;3.00;2.70;;;;;;;-1.43;100.00;95974.56;5114807;28;20195;-86
2021/01/15 06:23:15;;;;;;;4.13;3.23;;;;;;;-1.61;100.00;95973.09;5114698;28;20199;-86
2021/01/15 06:25:59;;;;;;;3.97;3.57;;;;;;;-1.51;100.00;95997.41;5114989;28;20214;-86
2021/01/15 06:28:34;;;;;;;3.93;3.43;;;;;;;-1.45;100.00;95990.16;5114417;28;20199;-86
2021/01/15 06:31:04;;;;;;;3.70;3.40;;;;;;;-1.46;100.00;95992.78;5114727;28;20210;-86
2021/01/15 06:33:31;;;;;;;3.13;2.67;;;;;;;-1.39;100.00;96008.72;5114479;28;20333;-87
2021/01/15 06:35:58;;;;;;;6.20;3.90;;;;;;;-1.31;100.00;96006.53;5114468;28;20192;-87
2021/01/15 06:38:29;;;;;;;4.23;3.83;;;;;;;-1.39;100.00;96016.47;5114187;28;20282;-86
2021/01/15 06:40:59;;;;;;;10.87;7.80;;;;;;;-1.31;100.00;96019.44;5114344;28;20191;-85
2021/01/15 06:43:30;;;;;;;21.47;12.37;;;;;;;-1.37;100.00;96023.19;5113830;28;20660;-87
2021/01/15 06:45:58;;;;;;;11.00;8.07;;;;;;;-1.24;100.00;96028.44;5114495;28;20195;-86
2021/01/15 06:48:28;;;;;;;5.83;5.23;;;;;;;-1.21;100.00;96026.50;5114500;28;20671;-87
2021/01/15 06:50:56;;;;;;;3.47;3.17;;;;;;;-1.13;100.00;96025.22;5114254;28;20253;-87
2021/01/15 06:53:25;;;;;;;4.30;3.90;;;;;;;-1.07;100.00;96030.00;5114346;28;20286;-87
2021/01/15 06:55:53;;;;;;;4.47;4.07;;;;;;;-1.03;100.00;96029.72;5114058;28;20259;-87
2021/01/15 06:58:23;;;;;;;7.20;3.90;;;;;;;-0.93;100.00;96036.91;5114626;28;20196;-87
2021/01/15 07:01:19;;;;;;;6.13;5.07;;;;;;;-0.91;100.00;96040.22;5115477;28;20640;-87
2021/01/15 07:04:15;;;;;;;14.17;9.93;;;;;;;-1.01;100.00;96042.50;5114024;28;20179;-87
2021/01/15 07:07:11;;;;;;;10.87;7.27;;;;;;;-0.90;100.00;96050.44;5114031;28;20191;-87
2021/01/15 07:09:38;;;;;;;6.03;5.40;;;;;;;-0.82;100.00;96052.56;5113937;28;20195;-86
2021/01/15 07:12:09;;;;;;;4.47;4.07;;;;;;;-0.82;100.00;96039.66;5114437;28;20187;-86
2021/01/15 07:14:48;;;;;;;4.80;4.33;;;;;;;-0.82;100.00;96042.22;5113961;28;20237;-87
2021/01/15 07:17:17;;;;;;;7.57;5.40;;;;;;;-0.65;100.00;96046.34;5113858;28;20180;-86
2021/01/15 07:19:45;;;;;;;3.07;2.80;;;;;;;-0.66;100.00;96048.06;5113374;28;20199;-86
2021/01/15 07:22:13;;;;;;;6.40;4.33;;;;;;;-0.54;100.00;96052.50;5113464;28;20202;-86
2021/01/15 07:24:42;;;;;;;6.00;4.13;;;;;;;-0.52;100.00;96060.97;5114090;28;20278;-86
2021/01/15 07:27:12;;;;;;;8.53;4.27;;;;;;;-0.27;100.00;96068.00;5113991;28;20201;-86
2021/01/15 07:29:47;;;;;;;4.70;4.10;;;;;;;-0.40;100.00;96085.19;5113668;28;20602;-86
2021/01/15 07:32:21;;;;;;;3.50;3.20;;;;;;;-0.24;100.00;96082.50;5113566;28;20183;-86
2021/01/15 07:34:52;;;;;;;3.87;3.53;;;;;;;-0.09;100.00;96102.16;5113387;28;20184;-86
2021/01/15 07:37:25;;;;;;;4.73;3.37;;;;;;;-0.16;100.00;96103.47;5113472;28;20582;-87
2021/01/15 07:40:17;;;;;;;5.67;4.60;;;;;;;0.18;100.00;96115.09;5113197;28;20188;-86
2021/01/15 07:42:57;;;;;;;5.37;4.13;;;;;;;0.14;100.00;96118.78;5093966;28;20203;-86
2021/01/15 07:46:00;;;;;;;4.50;3.97;;;;;;;0.16;100.00;96132.44;5113545;28;20308;-87
2021/01/15 07:48:27;;;;;;;5.13;4.30;;;;;;;0.13;100.00;96135.22;5113603;28;20635;-87
2021/01/15 07:50:55;;;;;;;7.03;4.43;;;;;;;0.21;100.00;96135.56;5112959;28;20215;-86
2021/01/15 07:53:30;;;;;;;3.73;3.20;;;;;;;0.11;100.00;96133.66;5112876;28;20191;-88
2021/01/15 07:55:59;;;;;;;9.73;6.97;;;;;;;0.33;100.00;96136.53;5112727;28;20234;-87
2021/01/15 07:58:45;;;;;;;7.03;5.53;;;;;;;0.43;100.00;96141.94;5113444;28;20256;-88
2021/01/15 08:01:14;;;;;;;3.87;3.47;;;;;;;0.51;100.00;96141.44;5113076;28;20326;-87
2021/01/15 08:03:42;;;;;;;4.17;3.57;;;;;;;0.47;100.00;96144.22;5113025;28;20199;-87
2021/01/15 08:06:10;;;;;;;3.80;3.50;;;;;;;0.65;100.00;96152.50;5113244;28;20228;-87
2021/01/15 08:08:41;;;;;;;5.17;3.90;;;;;;;0.90;100.00;96158.66;5113000;28;20196;-88
2021/01/15 08:11:11;;;;;;;4.17;3.17;;;;;;;0.67;100.00;96152.44;5112901;28;20208;-87
2021/01/15 08:13:38;;;;;;;2.87;2.50;;;;;;;0.76;100.00;96151.81;5113124;28;20237;-88
2021/01/15 08:16:06;;;;;;;4.87;3.47;;;;;;;1.02;100.00;96165.63;5112914;28;20328;-88
2021/01/15 08:18:34;;;;;;;6.77;3.87;;;;;;;1.11;100.00;96165.00;5113073;28;20191;-87
2021/01/15 08:21:02;;;;;;;5.07;3.37;;;;;;;1.15;100.00;96173.41;5112847;28;20234;-88
2021/01/15 08:23:29;;;;;;;5.07;3.07;;;;;;;0.89;100.00;96165.59;5112960;28;20238;-88
2021/01/15 08:26:25;;;;;;;2.53;2.33;;;;;;;0.96;100.00;96168.59;5114404;28;20629;-88
2021/01/15 08:28:52;;;;;;;3.13;2.83;;;;;;;1.18;100.00;96184.38;5113472;28;20286;-88
2021/01/15 08:31:22;;;;;;;3.00;2.80;;;;;;;1.68;100.00;96179.25;5113503;28;20324;-89
2021/01/15 08:34:04;;;;;;;2.60;2.40;;;;;;;1.56;100.00;96193.91;5113167;28;20656;-89
2021/01/15 08:36:30;;;;;;;2.87;2.57;;;;;;;1.38;100.00;96195.13;5113703;28;20252;-88
2021/01/15 08:38:57;;;;;;;2.97;2.70;;;;;;;1.93;100.00;96201.69;5112824;28;20196;-88
2021/01/15 08:41:27;;;;;;;2.77;2.50;;;;;;;1.86;100.00;96203.06;5113084;28;20202;-88
2021/01/15 08:43:55;;;;;;;3.57;2.50;;;;;;;1.80;100.00;96211.25;5113201;28;20252;-88
2021/01/15 08:46:23;;;;;;;2.90;2.67;;;;;;;1.95;100.00;96206.78;5112826;28;20195;-89
2021/01/15 08:48:51;;;;;;;2.70;2.47;;;;;;;2.41;100.00;96201.75;5112868;28;20195;-89
2021/01/15 08:51:21;;;;;;;5.00;4.50;;;;;;;2.44;100.00;96209.31;5112869;28;20219;-88
2021/01/15 08:56:41;;;;;;;4.50;3.63;;;;;;;2.20;100.00;96200.69;5112755;28;20297;-89
2021/01/15 08:59:10;;;;;;;4.60;3.77;;;;;;;2.29;100.00;96202.66;5112776;28;20183;-88
2021/01/15 09:01:39;;;;;;;4.53;4.13;;;;;;;2.35;100.00;96207.38;5113706;28;20264;-88
2021/01/15 09:04:09;;;;;;;4.73;2.40;;;;;;;2.26;100.00;96208.88;5112903;28;20199;-89
2021/01/15 09:06:38;;;;;;;3.30;3.00;;;;;;;2.15;100.00;96206.22;5116024;28;20639;-88
2021/01/15 09:09:07;;;;;;;3.07;2.80;;;;;;;2.22;100.00;96207.44;5116615;28;20286;-88
2021/01/15 09:11:36;;;;;;;2.83;2.63;;;;;;;2.44;100.00;96205.91;5116557;28;20314;-88
2021/01/15 09:14:04;;;;;;;4.30;3.53;;;;;;;2.61;100.00;96200.31;5116817;28;20206;-88
2021/01/15 09:16:31;;;;;;;3.30;2.87;;;;;;;2.57;100.00;96199.72;5116846;28;20277;-87
2021/01/15 09:19:07;;;;;;;3.47;3.00;;;;;;;2.56;100.00;96192.88;5116747;28;20574;-88
2021/01/15 09:21:34;;;;;;;3.30;3.00;;;;;;;2.69;100.00;96169.44;5116636;28;20255;-89
2021/01/15 09:24:01;;;;;;;3.50;3.03;;;;;;;2.66;100.00;96166.25;5116769;28;20196;-89
2021/01/15 09:26:27;;;;;;;3.50;3.13;;;;;;;2.90;100.00;96167.03;5116424;28;20242;-88
2021/01/15 09:28:54;;;;;;;3.37;2.77;;;;;;;2.65;100.00;96159.41;5116786;28;20195;-89
2021/01/15 09:31:21;;;;;;;5.03;4.53;;;;;;;2.58;100.00;96159.84;5116464;28;20223;-89
2021/01/15 09:33:48;;;;;;;3.70;3.00;;;;;;;3.01;100.00;96164.50;5116384;28;20199;-89
2021/01/15 09:36:24;;;;;;;3.90;3.50;;;;;;;3.37;100.00;96167.84;5116364;28;20192;-90
2021/01/15 09:38:52;;;;;;;5.17;3.10;;;;;;;3.29;100.00;96180.56;5116491;28;20727;-90
2021/01/15 09:41:19;;;;;;;2.97;2.00;;;;;;;3.17;100.00;96171.94;5116045;28;20199;-90
2021/01/15 09:43:46;;;;;;;5.23;4.13;;;;;;;2.79;100.00;96178.22;5115990;28;20664;-89
2021/01/15 09:46:24;;;;;;;4.87;3.73;;;;;;;3.42;100.00;96173.50;5116357;28;20206;-90
2021/01/15 09:48:51;;;;;;;3.57;2.73;;;;;;;3.27;100.00;96175.50;5116069;28;20194;-90
2021/01/15 09:51:21;;;;;;;3.00;2.80;;;;;;;2.99;100.00;96171.56;5116218;28;20304;-90
2021/01/15 09:53:49;;;;;;;12.37;5.27;;;;;;;3.86;100.00;96169.25;5116012;28;20680;-89
2021/01/15 09:56:27;;;;;;;4.20;2.97;;;;;;;4.16;100.00;96184.22;5116254;28;20196;-90
2021/01/15 09:58:55;;;;;;;3.80;3.40;;;;;;;4.33;100.00;96174.25;5115905;28;20187;-90
2021/01/15 10:01:23;;;;;;;2.87;2.50;;;;;;;4.37;100.00;96186.91;5115829;28;20282;-90
2021/01/15 10:03:50;;;;;;;2.67;2.47;;;;;;;4.49;100.00;96185.09;5115735;28;20192;-91
2021/01/15 10:06:18;;;;;;;2.70;2.50;;;;;;;4.09;100.00;96180.47;5115869;28;20210;-91
2021/01/15 10:08:46;;;;;;;3.47;3.17;;;;;;;4.40;100.00;96184.06;5115878;28;20290;-90
2021/01/15 10:11:24;;;;;;;4.37;3.43;;;;;;;4.87;100.00;96183.75;5115559;28;20315;-90
2021/01/15 10:13:53;;;;;;;2.93;2.73;;;;;;;4.76;100.00;96180.25;5115523;28;20192;-89
2021/01/15 10:16:20;;;;;;;3.57;3.27;;;;;;;4.93;100.00;96175.47;5115363;28;20198;-90
2021/01/15 10:18:47;;;;;;;2.77;2.57;;;;;;;4.68;100.00;96174.03;5114882;28;20199;-90
2021/01/15 10:21:13;;;;;;;3.50;3.20;;;;;;;4.79;100.00;96173.97;5115546;28;20191;-91
2021/01/15 10:23:40;;;;;;;4.23;3.83;;;;;;;5.08;100.00;96161.16;5116399;28;20329;-93
2021/01/15 10:26:07;;;;;;;3.63;3.10;;;;;;;4.93;100.00;96163.25;5115783;28;20238;-91
2021/01/15 10:28:35;;;;;;;4.90;2.97;;;;;;;4.89;100.00;96172.28;5115656;28;20199;-90
2021/01/15 10:31:02;;;;;;;2.83;2.63;;;;;;;4.76;100.00;96169.03;5115885;28;20219;-91
2021/01/15 10:33:29;;;;;;;3.90;3.00;;;;;;;4.23;100.00;96159.38;5115767;28;20286;-91
2021/01/15 10:35:56;;;;;;;3.27;2.97;;;;;;;4.38;100.00;96159.09;5116055;28;20203;-91
2021/01/15 10:38:23;;;;;;;4.70;3.20;;;;;;;4.43;100.00;96147.34;5115625;28;20195;-90
2021/01/15 10:40:50;;;;;;;5.00;4.33;;;;;;;4.80;100.00;96143.56;5115450;28;20286;-90
2021/01/15 10:43:17;;;;;;;3.63;3.33;;;;;;;4.76;100.00;96124.75;5116331;28;20192;-91
2021/01/15 10:45:45;;;;;;;6.20;3.20;;;;;;;4.50;100.00;96127.72;5116617;28;20196;-90
2021/01/15 10:48:11;;;;;;;3.60;3.00;;;;;;;4.77;100.00;96122.00;5115471;28;20234;-91
2021/01/15 10:50:39;;;;;;;4.17;3.33;;;;;;;4.69;100.00;96121.00;5115074;28;20598;-90
2021/01/15 10:53:06;;;;;;;4.13;3.60;;;;;;;4.70;100.00;96115.66;5115056;28;20557;-91
2021/01/15 10:55:32;;;;;;;4.73;3.70;;;;;;;4.81;100.00;96119.16;5114719;28;20227;-91
2021/01/15 10:57:59;;;;;;;5.90;4.50;;;;;;;5.10;100.00;96116.75;5115065;28;20200;-90
2021/01/15 11:00:26;;;;;;;3.27;2.97;;;;;;;5.24;100.00;96122.44;5115223;28;20194;-91
2021/01/15 11:02:54;;;;;;;3.50;3.20;;;;;;;5.22;100.00;96107.91;5114724;28;20283;-91
2021/01/15 11:05:21;;;;;;;5.03;3.17;;;;;;;5.40;100.00;96113.31;5114605;28;20202;-91
2021/01/15 11:07:48;;;;;;;4.87;3.90;;;;;;;5.49;100.00;96118.59;5114869;28;20606;-91
2021/01/15 11:10:15;;;;;;;4.47;3.20;;;;;;;5.70;100.00;96121.13;5114528;28;20223;-92
2021/01/15 11:12:42;;;;;;;2.37;2.17;;;;;;;5.12;100.00;96120.03;5114493;28;20687;-92
2021/01/15 11:15:09;;;;;;;2.13;2.03;;;;;;;4.77;100.00;96121.19;5114426;28;20244;-91
2021/01/15 11:17:39;;;;;;;3.17;2.90;;;;;;;4.94;100.00;96123.22;5114276;28;20203;-91
2021/01/15 11:20:08;;;;;;;3.80;3.50;;;;;;;5.76;100.00;96126.78;5114257;28;20191;-91
2021/01/15 11:22:36;;;;;;;4.07;3.60;;;;;;;5.83;100.00;96122.69;5114392;28;20684;-90
2021/01/15 11:25:05;;;;;;;3.90;3.50;;;;;;;5.91;100.00;96122.84;5114123;28;20283;-92
2021/01/15 11:27:33;;;;;;;3.03;2.80;;;;;;;6.25;100.00;96135.59;5114259;28;20204;-91
2021/01/15 11:30:00;;;;;;;4.37;2.57;;;;;;;6.07;100.00;96128.41;5114380;28;20332;-91
2021/01/15 11:32:27;;;;;;;3.80;2.70;;;;;;;7.05;100.00;96135.31;5114030;28;20195;-91
2021/01/15 11:34:54;;;;;;;3.57;3.00;;;;;;;6.11;100.00;96131.59;5114458;28;20199;-91
2021/01/15 11:37:23;;;;;;;2.80;2.60;;;;;;;5.82;100.00;96134.91;5113886;28;20196;-91
2021/01/15 11:39:50;;;;;;;2.63;2.43;;;;;;;5.73;100.00;96123.47;5114298;28;20207;-92
2021/01/15 11:42:17;;;;;;;4.70;4.10;;;;;;;6.53;100.00;96128.75;5113916;28;20192;-92
2021/01/15 11:44:44;;;;;;;3.57;3.20;;;;;;;6.62;100.00;96128.75;5113977;28;20191;-92
2021/01/15 11:47:11;;;;;;;3.87;3.43;;;;;;;6.69;100.00;96126.44;5114033;28;20574;-92